BIKF/KEF METAR and TAF weather

Enter ICAO airport designator
Station Type Date Time Source
BIKF METAR 2019/06/17 07:00 UTC NOAA

BIKF 170700Z 31007KT 9999 OVC003 09/08 Q1008


Station Type Date Time Source
BIKF Decoded METAR 2019/06/17 07:00 UTC NOAA

Keflavikurflugvollur, Iceland (BIKF) 63-58N 022-36W 54M
Jun 17, 2019 - 03:00 AM EDT / 2019.06.17 0700 UTC
Wind: from the NW (310 degrees) at 8 MPH (7 KT):0
Visibility: greater than 7 mile(s):0
Sky conditions: overcast
Temperature: 48 F (9 C)
Dew Point: 46 F (8 C)
Relative Humidity: 93%
Pressure (altimeter): 29.77 in. Hg (1008 hPa)
ob: BIKF 170700Z 31007KT 9999 OVC003 09/08 Q1008
cycle: 7

Station Type Date Time Source
BIKF TAF 2019/06/17 06:39 UTC NOAA

TAF BIKF 170436Z 1706/1806 32006KT 5000 BR OVC004 TX17/1715Z TN06/1803Z
TEMPO 1706/1708 9999 SCT010 BKN015
BECMG 1708/1710 SCT025
BECMG 1716/1719 01017G27KT

Example: see airport list